Airfield :
LOGIN :

Register | Disclaimer

   EN    FR    IT 

 










Legend :    VFR   Marginal VFR   IFR   Intensive IFR   Very Intensive IFR
Visi :
Ceiling :
>= 8 km
>= 3000ft
5 to 8 km
1000 to 3000 ft
1500m to 5 km
500 to 1000 ft
800 to 1500m
200 to 500 ft
< 800m
< 200 ft
Symbols :   Thunderstorms  Fog  Heavy snow  Heavy precipitations  Wind > 20 kt
SIGMETs :     Misc.  Thunderstorms  Icing  Turbulence  Mountain Waves  Volcanic Ashes






- Airport Elevation : 141 ft
- IATA code : TGD


LYPG - Podgorica - Montenegro

CURRENT METAR :
  • 150230Z 30003KT 1500 R18/1700U R36/1000U BR SCT080 10/09 Q1013 NOSIG

EXPIRED METARs :
  • 150200Z 04003KT 1000 R18/1900U R36/0600N BR SCT080 10/10 Q1013 NOSIG
  • 150130Z VRB02KT 1000 R18/1600D R36/1100U BR BKN080 11/10 Q1013 NOSIG
  • 150100Z 33003KT 1000 R18/0650U R36/1300U BR BKN080 11/11 Q1013 NOSIG
  • 150030Z 00000KT 2000 R18/P2000N R36/0750N BR BKN080 12/11 Q1013 NOSIG
  • 150000Z VRB02KT 1000 R18/0700D R36/1400D BR BKN080 12/11 Q1013 NOSIG

TAF TAF LYPG
Valid from the 15 at 00:00 until the 16 at 00:00 UTC


142300Z 1500/1524 VRB02KT 1000 BR SCT040 BKN080 TX19/1513Z TN10/1506Z
TEMPO 1500/1504 3000 -RA BR
PROB40
TEMPO 1503/1506 0300 FG
BECMG 1506/1508 9999 NSW
BECMG 1512/1514 15015KT
TEMPO 1511/1524 3000 RA



MET'MAP, your aeronautical weather chart ! - Copyright ORBIFLY December 2007 - Disclaimer

ORBIFLY MET'MAP TEAM :

Programming & Development : Alexandra Zaïnal
Concept & Development : Baudouin d'Aumeries
Co-Development & Prog : Marc-Olivier Méhu
Technical & hardware support : Manuel Goepfert

Contact : metmap@orbifly.com




SOURCES & CREDITS :

   NOAA